sensor_id;sensor_type;location;lat;lon;timestamp;pressure;altitude;pressure_sealevel;temperature;humidity
78584;BME280;67880;46.082;18.234;2023-04-01T00:00:11;98491.28;;;10.94;81.38
78584;BME280;67880;46.082;18.234;2023-04-01T00:00:44;98495.41;;;10.90;81.31
78584;BME280;67880;46.082;18.234;2023-04-01T00:01:16;98489.00;;;10.91;81.75
78584;BME280;67880;46.082;18.234;2023-04-01T00:01:47;98493.91;;;10.88;81.42
78584;BME280;67880;46.082;18.234;2023-04-01T00:02:17;98488.81;;;10.93;81.39
78584;BME280;67880;46.082;18.234;2023-04-01T00:02:48;98487.09;;;10.85;81.53
78584;BME280;67880;46.082;18.234;2023-04-01T00:03:20;98489.13;;;10.83;81.73
78584;BME280;67880;46.082;18.234;2023-04-01T00:04:06;98481.50;;;10.87;81.26
78584;BME280;67880;46.082;18.234;2023-04-01T00:04:36;98489.22;;;10.90;81.86
78584;BME280;67880;46.082;18.234;2023-04-01T00:05:07;98484.28;;;10.93;81.84
78584;BME280;67880;46.082;18.234;2023-04-01T00:05:40;98487.34;;;10.90;81.33
78584;BME280;67880;46.082;18.234;2023-04-01T00:06:16;98479.50;;;10.89;81.35
78584;BME280;67880;46.082;18.234;2023-04-01T00:06:47;98474.47;;;10.85;81.76
78584;BME280;67880;46.082;18.234;2023-04-01T00:07:17;98471.25;;;10.90;81.32
78584;BME280;67880;46.082;18.234;2023-04-01T00:07:48;98477.25;;;10.92;81.49
78584;BME280;67880;46.082;18.234;2023-04-01T00:08:18;98470.41;;;10.90;81.11
78584;BME280;67880;46.082;18.234;2023-04-01T00:08:49;98477.56;;;10.82;81.30
78584;BME280;67880;46.082;18.234;2023-04-01T00:09:20;98480.25;;;10.82;81.43
78584;BME280;67880;46.082;18.234;2023-04-01T00:09:51;98476.97;;;10.87;81.53
78584;BME280;67880;46.082;18.234;2023-04-01T00:10:21;98472.06;;;10.91;81.69
78584;BME280;67880;46.082;18.234;2023-04-01T00:10:52;98479.03;;;10.85;81.33
78584;BME280;67880;46.082;18.234;2023-04-01T00:11:23;98472.19;;;10.82;81.08
78584;BME280;67880;46.082;18.234;2023-04-01T00:11:54;98477.16;;;10.85;80.87
78584;BME280;67880;46.082;18.234;2023-04-01T00:12:25;98477.16;;;10.85;81.04
78584;BME280;67880;46.082;18.234;2023-04-01T00:12:55;98478.19;;;10.84;81.10
78584;BME280;67880;46.082;18.234;2023-04-01T00:13:26;98474.47;;;10.85;81.49
78584;BME280;67880;46.082;18.234;2023-04-01T00:13:57;98459.47;;;10.91;81.20
78584;BME280;67880;46.082;18.234;2023-04-01T00:14:27;98472.25;;;10.89;80.85
78584;BME280;67880;46.082;18.234;2023-04-01T00:14:59;98470.56;;;10.88;81.10
78584;BME280;67880;46.082;18.234;2023-04-01T00:15:30;98467.06;;;10.88;80.68
78584;BME280;67880;46.082;18.234;2023-04-01T00:16:00;98468.56;;;10.90;80.79
78584;BME280;67880;46.082;18.234;2023-04-01T00:16:32;98468.47;;;10.83;80.49
78584;BME280;67880;46.082;18.234;2023-04-01T00:17:03;98459.19;;;10.86;80.35
78584;BME280;67880;46.082;18.234;2023-04-01T00:17:34;98465.41;;;10.87;80.36
78584;BME280;67880;46.082;18.234;2023-04-01T00:18:05;98463.56;;;10.87;81.25
78584;BME280;67880;46.082;18.234;2023-04-01T00:18:35;98464.56;;;10.86;80.71
78584;BME280;67880;46.082;18.234;2023-04-01T00:19:06;98458.38;;;10.85;80.89
78584;BME280;67880;46.082;18.234;2023-04-01T00:19:36;98461.06;;;10.85;81.11
78584;BME280;67880;46.082;18.234;2023-04-01T00:20:08;98460.03;;;10.87;80.84
78584;BME280;67880;46.082;18.234;2023-04-01T00:20:44;98461.25;;;10.84;81.23
78584;BME280;67880;46.082;18.234;2023-04-01T00:21:16;98449.75;;;10.90;80.78
78584;BME280;67880;46.082;18.234;2023-04-01T00:21:46;98457.81;;;10.90;81.29
78584;BME280;67880;46.082;18.234;2023-04-01T00:22:18;98456.78;;;10.91;80.92
78584;BME280;67880;46.082;18.234;2023-04-01T00:22:48;98454.66;;;10.87;81.10
78584;BME280;67880;46.082;18.234;2023-04-01T00:23:20;98451.78;;;10.88;80.78
78584;BME280;67880;46.082;18.234;2023-04-01T00:23:51;98457.06;;;10.96;80.72
78584;BME280;67880;46.082;18.234;2023-04-01T00:24:21;98450.44;;;10.99;80.87
78584;BME280;67880;46.082;18.234;2023-04-01T00:24:52;98452.94;;;11.00;80.74
78584;BME280;67880;46.082;18.234;2023-04-01T00:25:24;98454.16;;;10.98;80.74
78584;BME280;67880;46.082;18.234;2023-04-01T00:25:55;98450.44;;;10.99;80.96
78584;BME280;67880;46.082;18.234;2023-04-01T00:26:26;98445.53;;;11.02;80.47
78584;BME280;67880;46.082;18.234;2023-04-01T00:26:56;98447.78;;;10.99;79.37
78584;BME280;67880;46.082;18.234;2023-04-01T00:27:27;98450.19;;;10.94;80.56
78584;BME280;67880;46.082;18.234;2023-04-01T00:27:58;98448.34;;;10.94;80.40
78584;BME280;67880;46.082;18.234;2023-04-01T00:28:29;98439.44;;;10.94;80.03
78584;BME280;67880;46.082;18.234;2023-04-01T00:29:00;98432.88;;;10.96;80.23
78584;BME280;67880;46.082;18.234;2023-04-01T00:29:31;98443.44;;;10.98;79.30
78584;BME280;67880;46.082;18.234;2023-04-01T00:30:03;98440.22;;;10.88;79.90
78584;BME280;67880;46.082;18.234;2023-04-01T00:30:35;98430.38;;;10.95;79.69
78584;BME280;67880;46.082;18.234;2023-04-01T00:31:08;98434.91;;;10.94;80.19
78584;BME280;67880;46.082;18.234;2023-04-01T00:31:39;98423.09;;;10.89;79.44
78584;BME280;67880;46.082;18.234;2023-04-01T00:32:10;98435.94;;;10.93;80.04
78584;BME280;67880;46.082;18.234;2023-04-01T00:32:41;98432.69;;;10.98;79.90
78584;BME280;67880;46.082;18.234;2023-04-01T00:33:12;98438.06;;;10.98;80.08
78584;BME280;67880;46.082;18.234;2023-04-01T00:33:43;98435.56;;;10.96;79.85
78584;BME280;67880;46.082;18.234;2023-04-01T00:34:15;98440.03;;;10.89;79.43
78584;BME280;67880;46.082;18.234;2023-04-01T00:34:46;98432.00;;;10.89;79.83
78584;BME280;67880;46.082;18.234;2023-04-01T00:35:20;98426.41;;;10.91;79.66
78584;BME280;67880;46.082;18.234;2023-04-01T00:35:51;98427.63;;;10.88;80.19
78584;BME280;67880;46.082;18.234;2023-04-01T00:36:22;98429.09;;;10.91;79.77
78584;BME280;67880;46.082;18.234;2023-04-01T00:36:53;98426.91;;;10.79;79.74
78584;BME280;67880;46.082;18.234;2023-04-01T00:37:24;98426.56;;;10.82;79.44
78584;BME280;67880;46.082;18.234;2023-04-01T00:37:57;98421.81;;;10.84;79.94
78584;BME280;67880;46.082;18.234;2023-04-01T00:38:27;98420.78;;;10.85;79.34
78584;BME280;67880;46.082;18.234;2023-04-01T00:38:58;98428.84;;;10.85;79.53
78584;BME280;67880;46.082;18.234;2023-04-01T00:39:30;98424.50;;;10.84;79.99
78584;BME280;67880;46.082;18.234;2023-04-01T00:40:01;98424.03;;;10.81;80.62
78584;BME280;67880;46.082;18.234;2023-04-01T00:40:38;98428.56;;;10.80;80.34
78584;BME280;67880;46.082;18.234;2023-04-01T00:41:10;98425.91;;;10.80;80.75
78584;BME280;67880;46.082;18.234;2023-04-01T00:41:45;98423.88;;;10.82;80.10
78584;BME280;67880;46.082;18.234;2023-04-01T00:42:16;98423.66;;;10.84;80.11
78584;BME280;67880;46.082;18.234;2023-04-01T00:42:46;98424.69;;;10.83;80.24
78584;BME280;67880;46.082;18.234;2023-04-01T00:43:19;98424.25;;;10.79;80.75
78584;BME280;67880;46.082;18.234;2023-04-01T00:43:51;98422.19;;;10.81;80.01
78584;BME280;67880;46.082;18.234;2023-04-01T00:44:25;98421.19;;;10.82;80.08
78584;BME280;67880;46.082;18.234;2023-04-01T00:44:55;98425.91;;;10.80;80.32
78584;BME280;67880;46.082;18.234;2023-04-01T00:45:33;98421.56;;;10.79;80.35
78584;BME280;67880;46.082;18.234;2023-04-01T00:46:04;98425.97;;;10.87;80.72
78584;BME280;67880;46.082;18.234;2023-04-01T00:46:34;98426.16;;;10.85;80.24
78584;BME280;67880;46.082;18.234;2023-04-01T00:47:07;98425.13;;;10.87;79.93
78584;BME280;67880;46.082;18.234;2023-04-01T00:47:37;98418.16;;;10.92;80.47
78584;BME280;67880;46.082;18.234;2023-04-01T00:48:17;98420.41;;;10.89;80.48
78584;BME280;67880;46.082;18.234;2023-04-01T00:48:51;98413.38;;;10.88;80.46
78584;BME280;67880;46.082;18.234;2023-04-01T00:49:28;98414.44;;;10.93;80.31
78584;BME280;67880;46.082;18.234;2023-04-01T00:50:00;98412.38;;;10.89;80.09
78584;BME280;67880;46.082;18.234;2023-04-01T00:50:33;98416.31;;;10.93;80.16
78584;BME280;67880;46.082;18.234;2023-04-01T00:51:17;98416.44;;;10.84;80.65
78584;BME280;67880;46.082;18.234;2023-04-01T00:51:52;98410.06;;;10.85;80.80
78584;BME280;67880;46.082;18.234;2023-04-01T00:52:26;98408.59;;;10.83;80.80
78584;BME280;67880;46.082;18.234;2023-04-01T00:52:58;98405.72;;;10.84;81.16
78584;BME280;67880;46.082;18.234;2023-04-01T00:53:32;98409.78;;;10.80;80.42
78584;BME280;67880;46.082;18.234;2023-04-01T00:54:05;98403.31;;;10.75;81.08
78584;BME280;67880;46.082;18.234;2023-04-01T00:54:38;98408.59;;;10.83;81.34
78584;BME280;67880;46.082;18.234;2023-04-01T00:55:16;98399.50;;;10.84;81.03
78584;BME280;67880;46.082;18.234;2023-04-01T00:56:24;98409.72;;;10.74;80.61
78584;BME280;67880;46.082;18.234;2023-04-01T00:57:04;98403.59;;;10.80;81.12
78584;BME280;67880;46.082;18.234;2023-04-01T00:57:37;98401.16;;;10.85;81.43
78584;BME280;67880;46.082;18.234;2023-04-01T00:58:14;98406.53;;;10.85;81.90
78584;BME280;67880;46.082;18.234;2023-04-01T00:58:54;98401.38;;;10.83;81.12
78584;BME280;67880;46.082;18.234;2023-04-01T00:59:29;98398.03;;;10.81;81.20
78584;BME280;67880;46.082;18.234;2023-04-01T01:00:05;98394.34;;;10.82;80.97
78584;BME280;67880;46.082;18.234;2023-04-01T01:00:38;98407.81;;;10.89;81.26
78584;BME280;67880;46.082;18.234;2023-04-01T01:01:09;98402.81;;;10.86;81.19
78584;BME280;67880;46.082;18.234;2023-04-01T01:01:40;98403.91;;;10.92;81.34
78584;BME280;67880;46.082;18.234;2023-04-01T01:02:12;98399.38;;;10.92;81.55
78584;BME280;67880;46.082;18.234;2023-04-01T01:02:45;98404.88;;;10.84;81.38
78584;BME280;67880;46.082;18.234;2023-04-01T01:03:16;98404.16;;;10.75;81.66
78584;BME280;67880;46.082;18.234;2023-04-01T01:03:47;98405.25;;;10.81;81.44
78584;BME280;67880;46.082;18.234;2023-04-01T01:04:28;98399.44;;;10.77;81.49
78584;BME280;67880;46.082;18.234;2023-04-01T01:05:01;98408.63;;;10.68;82.33
78584;BME280;67880;46.082;18.234;2023-04-01T01:08:52;98423.84;;;10.61;82.95
78584;BME280;67880;46.082;18.234;2023-04-01T01:10:30;98435.84;;;10.44;83.56
78584;BME280;67880;46.082;18.234;2023-04-01T01:11:05;98436.53;;;10.52;83.52
78584;BME280;67880;46.082;18.234;2023-04-01T01:11:45;98434.41;;;10.63;83.23
78584;BME280;67880;46.082;18.234;2023-04-01T01:12:26;98436.63;;;10.59;83.06
78584;BME280;67880;46.082;18.234;2023-04-01T01:13:56;98437.91;;;10.63;82.99
78584;BME280;67880;46.082;18.234;2023-04-01T01:14:50;98431.72;;;10.48;83.58
78584;BME280;67880;46.082;18.234;2023-04-01T01:15:26;98434.41;;;10.48;83.84
78584;BME280;67880;46.082;18.234;2023-04-01T01:16:09;98429.31;;;10.53;83.52
78584;BME280;67880;46.082;18.234;2023-04-01T01:16:51;98427.03;;;10.50;83.66
78584;BME280;67880;46.082;18.234;2023-04-01T01:17:50;98419.16;;;10.48;84.03
78584;BME280;67880;46.082;18.234;2023-04-01T01:18:52;98412.13;;;10.47;83.75
78584;BME280;67880;46.082;18.234;2023-04-01T01:26:31;98418.78;;;10.51;83.92
78584;BME280;67880;46.082;18.234;2023-04-01T01:27:32;98424.00;;;10.38;84.34
78584;BME280;67880;46.082;18.234;2023-04-01T01:28:33;98421.75;;;10.42;84.49
78584;BME280;67880;46.082;18.234;2023-04-01T01:30:26;98434.81;;;10.45;84.78
78584;BME280;67880;46.082;18.234;2023-04-01T01:31:12;98431.53;;;10.49;84.46
78584;BME280;67880;46.082;18.234;2023-04-01T01:33:17;98441.28;;;10.50;83.79
78584;BME280;67880;46.082;18.234;2023-04-01T01:35:53;98433.25;;;10.36;84.55
78584;BME280;67880;46.082;18.234;2023-04-01T01:36:30;98429.81;;;10.42;84.39
78584;BME280;67880;46.082;18.234;2023-04-01T01:37:15;98424.44;;;10.42;84.48
78584;BME280;67880;46.082;18.234;2023-04-01T01:37:51;98431.22;;;10.38;84.36
78584;BME280;67880;46.082;18.234;2023-04-01T01:38:27;98429.16;;;10.40;84.39
78584;BME280;67880;46.082;18.234;2023-04-01T01:38:59;98429.16;;;10.40;84.27
78584;BME280;67880;46.082;18.234;2023-04-01T01:39:34;98425.28;;;10.42;84.61
78584;BME280;67880;46.082;18.234;2023-04-01T01:40:08;98428.41;;;10.46;84.18
78584;BME280;67880;46.082;18.234;2023-04-01T01:40:44;98423.06;;;10.46;84.77
78584;BME280;67880;46.082;18.234;2023-04-01T01:41:18;98422.28;;;10.52;84.38
78584;BME280;67880;46.082;18.234;2023-04-01T01:41:53;98423.94;;;10.53;84.54
78584;BME280;67880;46.082;18.234;2023-04-01T01:42:28;98424.97;;;10.52;84.27
78584;BME280;67880;46.082;18.234;2023-04-01T01:43:05;98424.34;;;10.50;83.99
78584;BME280;67880;46.082;18.234;2023-04-01T01:43:44;98424.34;;;10.50;84.11
78584;BME280;67880;46.082;18.234;2023-04-01T01:44:18;98422.03;;;10.47;84.00
78584;BME280;67880;46.082;18.234;2023-04-01T01:44:52;98426.84;;;10.51;84.65
78584;BME280;67880;46.082;18.234;2023-04-01T01:45:26;98423.13;;;10.52;84.26
78584;BME280;67880;46.082;18.234;2023-04-01T01:46:01;98410.16;;;10.56;84.35
78584;BME280;67880;46.082;18.234;2023-04-01T01:46:33;98419.50;;;10.60;84.30
78584;BME280;67880;46.082;18.234;2023-04-01T01:47:03;98427.94;;;10.42;84.44
78584;BME280;67880;46.082;18.234;2023-04-01T01:47:35;98416.84;;;10.45;84.33
78584;BME280;67880;46.082;18.234;2023-04-01T01:48:08;98421.94;;;10.40;84.64
78584;BME280;67880;46.082;18.234;2023-04-01T01:48:42;98426.75;;;10.45;84.72
78584;BME280;67880;46.082;18.234;2023-04-01T01:49:14;98417.97;;;10.51;84.64
78584;BME280;67880;46.082;18.234;2023-04-01T01:50:04;98420.81;;;10.49;84.33
78584;BME280;67880;46.082;18.234;2023-04-01T01:50:36;98423.25;;;10.44;84.69
78584;BME280;67880;46.082;18.234;2023-04-01T01:51:08;98424.50;;;10.48;84.57
78584;BME280;67880;46.082;18.234;2023-04-01T01:51:39;98426.44;;;10.54;84.68
78584;BME280;67880;46.082;18.234;2023-04-01T01:52:12;98422.22;;;10.45;85.01
78584;BME280;67880;46.082;18.234;2023-04-01T01:52:42;98425.75;;;10.46;85.40
78584;BME280;67880;46.082;18.234;2023-04-01T01:53:13;98427.78;;;10.44;84.94
78584;BME280;67880;46.082;18.234;2023-04-01T01:53:44;98420.38;;;10.46;85.06
78584;BME280;67880;46.082;18.234;2023-04-01T01:54:16;98419.91;;;10.42;85.65
78584;BME280;67880;46.082;18.234;2023-04-01T01:54:54;98420.16;;;10.47;85.31
78584;BME280;67880;46.082;18.234;2023-04-01T01:55:30;98419.47;;;10.39;85.71
78584;BME280;67880;46.082;18.234;2023-04-01T01:56:01;98421.69;;;10.35;85.82
78584;BME280;67880;46.082;18.234;2023-04-01T01:56:32;98420.94;;;10.41;85.89
78584;BME280;67880;46.082;18.234;2023-04-01T01:57:08;98415.41;;;10.28;86.15
78584;BME280;67880;46.082;18.234;2023-04-01T01:57:41;98419.75;;;10.29;85.67
78584;BME280;67880;46.082;18.234;2023-04-01T01:58:22;98416.44;;;10.27;85.88
78584;BME280;67880;46.082;18.234;2023-04-01T01:59:03;98417.59;;;10.39;85.74
78584;BME280;67880;46.082;18.234;2023-04-01T01:59:38;98418.38;;;10.33;85.70
78584;BME280;67880;46.082;18.234;2023-04-01T02:00:12;98412.53;;;10.29;85.83
78584;BME280;67880;46.082;18.234;2023-04-01T02:00:54;98418.38;;;10.33;85.89
78584;BME280;67880;46.082;18.234;2023-04-01T02:01:30;98412.25;;;10.39;85.78
78584;BME280;67880;46.082;18.234;2023-04-01T02:02:02;98414.84;;;10.33;85.99
78584;BME280;67880;46.082;18.234;2023-04-01T02:02:40;98410.50;;;10.32;86.04
78584;BME280;67880;46.082;18.234;2023-04-01T02:03:14;98416.13;;;10.37;85.70
78584;BME280;67880;46.082;18.234;2023-04-01T02:03:47;98408.00;;;10.30;85.75
78584;BME280;67880;46.082;18.234;2023-04-01T02:04:19;98414.03;;;10.32;86.19
78584;BME280;67880;46.082;18.234;2023-04-01T02:04:52;98413.94;;;10.25;86.37
78584;BME280;67880;46.082;18.234;2023-04-01T02:05:25;98413.28;;;10.23;86.90
78584;BME280;67880;46.082;18.234;2023-04-01T02:06:00;98409.41;;;10.26;86.21
78584;BME280;67880;46.082;18.234;2023-04-01T02:06:35;98413.19;;;10.32;86.11
78584;BME280;67880;46.082;18.234;2023-04-01T02:07:12;98408.06;;;10.37;86.32
78584;BME280;67880;46.082;18.234;2023-04-01T02:07:49;98416.72;;;10.32;85.97
78584;BME280;67880;46.082;18.234;2023-04-01T02:09:06;98411.16;;;10.34;85.91
78584;BME280;67880;46.082;18.234;2023-04-01T02:09:38;98411.78;;;10.36;86.09
78584;BME280;67880;46.082;18.234;2023-04-01T02:10:09;98410.13;;;10.35;85.79
78584;BME280;67880;46.082;18.234;2023-04-01T02:10:49;98408.53;;;10.40;85.66
78584;BME280;67880;46.082;18.234;2023-04-01T02:11:32;98415.56;;;10.41;85.87
78584;BME280;67880;46.082;18.234;2023-04-01T02:12:07;98410.19;;;10.41;85.10
78584;BME280;67880;46.082;18.234;2023-04-01T02:12:40;98405.97;;;10.32;85.79
78584;BME280;67880;46.082;18.234;2023-04-01T02:13:25;98415.28;;;10.36;85.72
78584;BME280;67880;46.082;18.234;2023-04-01T02:14:45;98412.81;;;10.35;85.80
78584;BME280;67880;46.082;18.234;2023-04-01T02:15:20;98414.47;;;10.36;85.36
78584;BME280;67880;46.082;18.234;2023-04-01T02:15:55;98405.84;;;10.40;85.27
78584;BME280;67880;46.082;18.234;2023-04-01T02:16:36;98408.25;;;10.35;85.65
78584;BME280;67880;46.082;18.234;2023-04-01T02:17:13;98412.59;;;10.36;85.27
78584;BME280;67880;46.082;18.234;2023-04-01T02:17:47;98410.03;;;10.28;85.76
78584;BME280;67880;46.082;18.234;2023-04-01T02:18:19;98418.09;;;10.28;85.74
78584;BME280;67880;46.082;18.234;2023-04-01T02:18:54;98407.81;;;10.32;85.44
78584;BME280;67880;46.082;18.234;2023-04-01T02:19:33;98413.34;;;10.30;85.86
78584;BME280;67880;46.082;18.234;2023-04-01T02:20:15;98410.94;;;10.35;85.69
78584;BME280;67880;46.082;18.234;2023-04-01T02:20:49;98404.56;;;10.36;85.94
78584;BME280;67880;46.082;18.234;2023-04-01T02:21:22;98408.19;;;10.28;85.50
78584;BME280;67880;46.082;18.234;2023-04-01T02:21:57;98406.81;;;10.33;84.97
78584;BME280;67880;46.082;18.234;2023-04-01T02:22:33;98409.22;;;10.27;84.87
78584;BME280;67880;46.082;18.234;2023-04-01T02:23:05;98408.75;;;10.24;85.22
78584;BME280;67880;46.082;18.234;2023-04-01T02:23:38;98408.38;;;10.27;85.29
78584;BME280;67880;46.082;18.234;2023-04-01T02:24:13;98411.25;;;10.25;85.56
78584;BME280;67880;46.082;18.234;2023-04-01T02:24:45;98408.47;;;10.34;85.26
78584;BME280;67880;46.082;18.234;2023-04-01T02:25:27;98412.53;;;10.29;84.87
78584;BME280;67880;46.082;18.234;2023-04-01T02:25:58;98405.31;;;10.30;85.02
78584;BME280;67880;46.082;18.234;2023-04-01T02:26:30;98409.09;;;10.36;85.05
78584;BME280;67880;46.082;18.234;2023-04-01T02:27:01;98407.81;;;10.32;84.67
78584;BME280;67880;46.082;18.234;2023-04-01T02:27:32;98403.66;;;10.29;85.06
78584;BME280;67880;46.082;18.234;2023-04-01T02:28:05;98406.59;;;10.34;84.49
78584;BME280;67880;46.082;18.234;2023-04-01T02:28:38;98403.94;;;10.34;84.19
78584;BME280;67880;46.082;18.234;2023-04-01T02:29:11;98407.63;;;10.33;84.16
78584;BME280;67880;46.082;18.234;2023-04-01T02:29:42;98402.06;;;10.35;84.50
78584;BME280;67880;46.082;18.234;2023-04-01T02:30:15;98408.47;;;10.34;84.38
78584;BME280;67880;46.082;18.234;2023-04-01T02:30:47;98412.44;;;10.38;84.61
78584;BME280;67880;46.082;18.234;2023-04-01T02:31:21;98398.63;;;10.41;84.19
78584;BME280;67880;46.082;18.234;2023-04-01T02:31:53;98400.41;;;10.34;83.95
78584;BME280;67880;46.082;18.234;2023-04-01T02:32:27;98401.16;;;10.27;83.92
78584;BME280;67880;46.082;18.234;2023-04-01T02:32:59;98400.88;;;10.37;84.01
78584;BME280;67880;46.082;18.234;2023-04-01T02:33:30;98406.06;;;10.39;84.02
78584;BME280;67880;46.082;18.234;2023-04-01T02:34:02;98397.34;;;10.37;84.32
78584;BME280;67880;46.082;18.234;2023-04-01T02:34:34;98395.69;;;10.36;83.92
78584;BME280;67880;46.082;18.234;2023-04-01T02:35:07;98393.38;;;10.33;83.47
78584;BME280;67880;46.082;18.234;2023-04-01T02:35:39;98398.47;;;10.27;83.70
78584;BME280;67880;46.082;18.234;2023-04-01T02:36:14;98386.63;;;10.22;83.14
78584;BME280;67880;46.082;18.234;2023-04-01T02:36:47;98391.25;;;10.28;83.37
78584;BME280;67880;46.082;18.234;2023-04-01T02:37:19;98377.94;;;10.35;84.08
78584;BME280;67880;46.082;18.234;2023-04-01T02:37:52;98383.94;;;10.37;83.87
78584;BME280;67880;46.082;18.234;2023-04-01T02:38:24;98386.16;;;10.33;83.43
78584;BME280;67880;46.082;18.234;2023-04-01T02:38:56;98383.59;;;10.25;83.23
78584;BME280;67880;46.082;18.234;2023-04-01T02:39:31;98382.84;;;10.31;83.11
78584;BME280;67880;46.082;18.234;2023-04-01T02:40:04;98383.03;;;10.29;82.83
78584;BME280;67880;46.082;18.234;2023-04-01T02:40:51;98383.69;;;10.32;82.92
78584;BME280;67880;46.082;18.234;2023-04-01T02:41:26;98389.69;;;10.34;83.01
78584;BME280;67880;46.082;18.234;2023-04-01T02:41:57;98380.72;;;10.26;82.92
78584;BME280;67880;46.082;18.234;2023-04-01T02:42:27;98384.03;;;10.28;82.94
78584;BME280;67880;46.082;18.234;2023-04-01T02:42:58;98379.78;;;10.34;83.27
78584;BME280;67880;46.082;18.234;2023-04-01T02:43:28;98381.84;;;10.32;83.24
78584;BME280;67880;46.082;18.234;2023-04-01T02:43:59;98375.88;;;10.37;83.10
78584;BME280;67880;46.082;18.234;2023-04-01T02:44:30;98369.53;;;10.38;81.80
78584;BME280;67880;46.082;18.234;2023-04-01T02:45:01;98372.19;;;10.38;82.04
78584;BME280;67880;46.082;18.234;2023-04-01T02:45:32;98369.53;;;10.38;81.99
78584;BME280;67880;46.082;18.234;2023-04-01T02:46:02;98373.38;;;10.35;82.19
78584;BME280;67880;46.082;18.234;2023-04-01T02:46:33;98370.06;;;10.33;82.15
78584;BME280;67880;46.082;18.234;2023-04-01T02:47:04;98369.59;;;10.29;82.19
78584;BME280;67880;46.082;18.234;2023-04-01T02:47:34;98370.72;;;10.20;82.59
78584;BME280;67880;46.082;18.234;2023-04-01T02:48:05;98362.59;;;10.14;83.01
78584;BME280;67880;46.082;18.234;2023-04-01T02:48:36;98354.56;;;10.14;82.56
78584;BME280;67880;46.082;18.234;2023-04-01T02:49:07;98352.97;;;10.19;82.76
78584;BME280;67880;46.082;18.234;2023-04-01T02:49:38;98353.59;;;10.21;82.43
78584;BME280;67880;46.082;18.234;2023-04-01T02:50:09;98358.16;;;10.21;81.73
78584;BME280;67880;46.082;18.234;2023-04-01T02:50:40;98344.38;;;10.24;81.79
78584;BME280;67880;46.082;18.234;2023-04-01T02:51:10;98349.91;;;10.22;81.57
78584;BME280;67880;46.082;18.234;2023-04-01T02:51:41;98348.81;;;10.17;83.08
78584;BME280;67880;46.082;18.234;2023-04-01T02:52:12;98349.28;;;10.20;82.43
78584;BME280;67880;46.082;18.234;2023-04-01T02:52:42;98354.16;;;10.17;83.09
78584;BME280;67880;46.082;18.234;2023-04-01T02:53:13;98359.09;;;10.13;81.68
78584;BME280;67880;46.082;18.234;2023-04-01T02:53:44;98354.00;;;10.18;82.44
78584;BME280;67880;46.082;18.234;2023-04-01T02:54:14;98344.03;;;10.12;82.10
78584;BME280;67880;46.082;18.234;2023-04-01T02:54:45;98354.00;;;10.18;82.25
78584;BME280;67880;46.082;18.234;2023-04-01T02:55:16;98344.66;;;10.14;82.29
78584;BME280;67880;46.082;18.234;2023-04-01T02:55:46;98355.59;;;10.13;81.84
78584;BME280;67880;46.082;18.234;2023-04-01T02:56:20;98349.81;;;10.16;81.62
78584;BME280;67880;46.082;18.234;2023-04-01T02:56:51;98347.97;;;10.16;82.62
78584;BME280;67880;46.082;18.234;2023-04-01T02:57:22;98356.47;;;10.20;82.54
78584;BME280;67880;46.082;18.234;2023-04-01T02:57:53;98349.00;;;10.15;82.21
78584;BME280;67880;46.082;18.234;2023-04-01T02:58:23;98353.81;;;10.20;82.44
78584;BME280;67880;46.082;18.234;2023-04-01T02:58:54;98347.97;;;10.16;81.81
78584;BME280;67880;46.082;18.234;2023-04-01T02:59:25;98348.63;;;10.18;81.44
78584;BME280;67880;46.082;18.234;2023-04-01T02:59:56;98353.59;;;10.21;81.54
78584;BME280;67880;46.082;18.234;2023-04-01T03:00:27;98352.59;;;10.22;81.78
78584;BME280;67880;46.082;18.234;2023-04-01T03:00:57;98348.81;;;10.17;81.51
78584;BME280;67880;46.082;18.234;2023-04-01T03:01:28;98347.63;;;10.19;81.70
78584;BME280;67880;46.082;18.234;2023-04-01T03:01:59;98343.28;;;10.18;82.23
78584;BME280;67880;46.082;18.234;2023-04-01T03:02:29;98343.91;;;10.20;82.37
78584;BME280;67880;46.082;18.234;2023-04-01T03:03:00;98342.25;;;10.19;81.88
78584;BME280;67880;46.082;18.234;2023-04-01T03:03:31;98335.84;;;10.20;82.17
78584;BME280;67880;46.082;18.234;2023-04-01T03:04:01;98346.94;;;10.17;82.00
78584;BME280;67880;46.082;18.234;2023-04-01T03:04:32;98340.13;;;10.15;81.67
78584;BME280;67880;46.082;18.234;2023-04-01T03:05:04;98328.56;;;10.14;81.40
78584;BME280;67880;46.082;18.234;2023-04-01T03:05:35;98330.84;;;10.17;82.22
78584;BME280;67880;46.082;18.234;2023-04-01T03:06:11;98331.88;;;10.16;81.78
78584;BME280;67880;46.082;18.234;2023-04-01T03:06:42;98324.66;;;10.17;81.80
78584;BME280;67880;46.082;18.234;2023-04-01T03:07:14;98322.66;;;10.19;82.06
78584;BME280;67880;46.082;18.234;2023-04-01T03:07:46;98329.88;;;10.18;81.55
78584;BME280;67880;46.082;18.234;2023-04-01T03:08:17;98328.66;;;10.21;81.90
78584;BME280;67880;46.082;18.234;2023-04-01T03:08:47;98327.19;;;10.18;82.04
78584;BME280;67880;46.082;18.234;2023-04-01T03:09:18;98322.66;;;10.19;81.42
78584;BME280;67880;46.082;18.234;2023-04-01T03:09:48;98324.66;;;10.17;81.48
78584;BME280;67880;46.082;18.234;2023-04-01T03:10:20;98319.31;;;10.17;82.23
78584;BME280;67880;46.082;18.234;2023-04-01T03:10:51;98320.41;;;10.22;82.59
78584;BME280;67880;46.082;18.234;2023-04-01T03:11:21;98327.63;;;10.22;82.72
78584;BME280;67880;46.082;18.234;2023-04-01T03:11:52;98328.84;;;10.19;82.09
78584;BME280;67880;46.082;18.234;2023-04-01T03:12:22;98319.41;;;10.23;82.03
78584;BME280;67880;46.082;18.234;2023-04-01T03:12:53;98319.56;;;10.22;82.58
78584;BME280;67880;46.082;18.234;2023-04-01T03:13:24;98319.25;;;10.25;82.35
78584;BME280;67880;46.082;18.234;2023-04-01T03:13:54;98321.41;;;10.21;82.39
78584;BME280;67880;46.082;18.234;2023-04-01T03:14:25;98324.94;;;10.22;82.21